Walla Walla, WA

2:14 PM PDT on May 05, 2015 (GMT -0700)
Meacham | | Change Station
CLOSE
Current Station
Airport
Location: Meacham,
Elevation: 3720 ft
Nearby Weather Stations

Elev 3720 ft 45.51 °N, 118.42 °W | Updated 18 minutes ago

Partly Cloudy
Partly Cloudy
53 °F
Feels Like 53 °F
N
8
Wind Variable Wind from WSW

Today
High -- | Low -- °F
--% Chance of Precip.
Yesterday
High -- | Low -- °F
Precip. -- in
5:34 AM 8:06 PM
Full, 97% visible
Pressure 30.02 in
Visibility 10.0 miles
Clouds Clear
Dew Point 27 °F
Humidity 37%
Rainfall 0.00 in
Snow Depth Not available.
UV 10 out of 12
Pollen 9.30 out of 12
Air Quality Not available.
Flu Activity Sporadic
METAR KMEH 052056Z AUTO 25007KT 210V300 10SM CLR 12/M03 A3000 RMK AO2 SLP165 T01171028 58005

More Conditions Fewer Conditions

Pressure 30.02 in
Visibility 10.0 miles
Clouds Clear
Dew Point 27 °F
Humidity 37%
Rainfall 0.00 in
Snow Depth Not available.
UV 10 out of 12
Pollen 9.30 out of 12
Air Quality Not available.
Flu Activity Sporadic
METAR KMEH 052056Z AUTO 25007KT 210V300 10SM CLR 12/M03 A3000 RMK AO2 SLP165 T01171028 58005

More Conditions Fewer Conditions

10-Day Weather Forecast

Almanac

Astronomy

May. 05, 2015 Rise Set
Actual Time
Civil Twilight
Nautical Twilight
Astronomical Twilight
Moon
Length of Visible Light
Length of Day
Tomorrow will be .
, % of the Moon is Illuminated

Today's Extremes

State Highs State Lows

Community

WunderPhotos

Upload Photos

1,818,979 photos uploaded!

WunderBlogs® & News

Nearby

Air Quality

  Air Quality AQ Index Pollutant
Not available.

Snow Depth

Station Depth Elevation

Earthquake Activity

City Distance Mag. Time & Date
Minimum magnitude displayed is 2.5.

Coastal Water Temperatures

Place Temperature

Stations

Nearby Weather Stations

Station Location Temp. Windchill Dew Point Humidity Wind Precip. Elev Updated Type